Time;durP1;ratioP1;P1;durP2;ratioP2;P2;SDS_P1;SDS_P2;PMS_P1;PMS_P2;Temp;Humidity;BMP_temperature;BMP_pressure;BME280_temperature;BME280_humidity;BME280_pressure;Samples;Min_cycle;Max_cycle;Signal;HPM_P1;HPM_P2
2024/01/05 05:01:25;;;;;;;4.43;1.53;;;2.90;97.30;;;;;;5630953;23;20504;-90
2024/01/05 05:03:50;;;;;;;1.40;1.30;;;2.90;97.30;;;;;;4969041;28;20461;-91
2024/01/05 05:06:16;;;;;;;1.20;1.10;;;2.90;97.30;;;;;;4963208;28;20273;-90
2024/01/05 05:08:41;;;;;;;3.80;1.83;;;3.00;97.30;;;;;;4970993;28;20424;-90
2024/01/05 05:11:07;;;;;;;1.40;1.30;;;3.00;97.30;;;;;;4971881;28;20206;-91
2024/01/05 05:13:33;;;;;;;2.60;2.40;;;3.00;97.30;;;;;;4975947;28;20724;-90
2024/01/05 05:15:58;;;;;;;1.60;1.50;;;3.00;97.30;;;;;;4975498;28;20770;-90
2024/01/05 05:18:25;;;;;;;2.20;2.00;;;3.10;97.30;;;;;;4955299;28;20605;-91
2024/01/05 05:20:50;;;;;;;3.73;3.53;;;3.10;97.30;;;;;;4972729;28;20536;-91
2024/01/05 05:23:16;;;;;;;2.80;1.83;;;3.10;97.30;;;;;;4972577;28;20191;-91
2024/01/05 05:25:41;;;;;;;1.00;0.90;;;3.10;97.30;;;;;;4980540;28;20179;-90
2024/01/05 05:28:07;;;;;;;3.17;1.90;;;3.10;97.30;;;;;;4972845;28;20186;-92
2024/01/05 05:30:32;;;;;;;5.70;1.90;;;3.20;97.30;;;;;;4972612;28;20202;-90
2024/01/05 05:32:58;;;;;;;2.80;1.57;;;3.20;97.30;;;;;;4972064;28;20736;-92
2024/01/05 05:35:23;;;;;;;1.30;1.20;;;3.20;97.30;;;;;;4990020;28;20208;-90
2024/01/05 05:37:49;;;;;;;1.17;1.07;;;3.20;97.30;;;;;;4976724;28;20221;-91
2024/01/05 05:40:14;;;;;;;4.33;1.60;;;3.20;97.30;;;;;;4967448;28;20298;-92
2024/01/05 05:42:40;;;;;;;2.70;1.77;;;3.20;97.30;;;;;;4982112;28;20224;-91
2024/01/05 05:45:06;;;;;;;1.60;1.50;;;3.20;97.30;;;;;;4973117;28;20190;-91
2024/01/05 05:47:31;;;;;;;1.97;1.70;;;3.30;97.30;;;;;;4981467;28;20190;-90
2024/01/05 05:49:57;;;;;;;1.80;1.70;;;3.30;97.30;;;;;;4990849;28;20437;-91
2024/01/05 05:52:22;;;;;;;1.47;1.47;;;3.30;97.30;;;;;;4990781;28;20571;-90
2024/01/05 05:54:48;;;;;;;1.27;1.17;;;3.30;97.30;;;;;;4986091;28;20174;-90
2024/01/05 05:57:13;;;;;;;1.33;1.30;;;3.40;97.30;;;;;;4977116;28;20484;-90
2024/01/05 05:59:39;;;;;;;1.30;1.20;;;3.40;97.30;;;;;;4971513;28;20186;-91
2024/01/05 06:02:04;;;;;;;2.10;1.70;;;3.40;97.30;;;;;;4942925;22;1173331;-65
2024/01/05 06:04:30;;;;;;;2.60;2.40;;;3.40;97.30;;;;;;4950395;28;20561;-65
2024/01/05 06:06:56;;;;;;;1.60;1.17;;;3.40;97.30;;;;;;4951063;28;20179;-65
2024/01/05 06:09:22;;;;;;;3.37;3.17;;;3.40;97.30;;;;;;4948215;28;20187;-65
2024/01/05 06:11:47;;;;;;;2.67;2.47;;;3.40;97.30;;;;;;4949032;28;21318;-64
2024/01/05 06:14:13;;;;;;;1.87;1.80;;;3.40;97.30;;;;;;4950054;28;20236;-64
2024/01/05 06:16:38;;;;;;;4.13;3.70;;;3.40;97.30;;;;;;4946471;28;20186;-64
2024/01/05 06:19:04;;;;;;;1.53;1.43;;;3.50;97.30;;;;;;4953423;28;20186;-64
2024/01/05 06:21:29;;;;;;;1.43;1.33;;;3.50;97.30;;;;;;4950504;28;20670;-64
2024/01/05 06:23:55;;;;;;;1.10;1.00;;;3.50;97.30;;;;;;4951319;28;20187;-64
2024/01/05 06:26:20;;;;;;;1.23;1.13;;;3.50;97.30;;;;;;4952010;28;20197;-64
2024/01/05 06:28:46;;;;;;;1.00;0.90;;;3.50;97.30;;;;;;4953458;28;20227;-64
2024/01/05 06:31:11;;;;;;;1.47;1.40;;;3.60;97.30;;;;;;4949988;28;20207;-65
2024/01/05 06:33:37;;;;;;;2.90;2.70;;;3.60;97.30;;;;;;4950211;28;20704;-64
2024/01/05 06:36:02;;;;;;;1.00;0.90;;;3.60;97.30;;;;;;4950142;28;20286;-64
2024/01/05 06:38:28;;;;;;;0.93;0.83;;;3.60;97.30;;;;;;4949863;28;20187;-65
2024/01/05 06:40:53;;;;;;;1.20;1.10;;;3.60;97.30;;;;;;4941258;28;20211;-66
2024/01/05 06:43:19;;;;;;;1.73;1.63;;;4.10;97.30;;;;;;4945884;28;20652;-66
2024/01/05 06:45:44;;;;;;;1.17;1.07;;;4.50;97.30;;;;;;4951190;28;20202;-64
2024/01/05 06:48:10;;;;;;;1.30;1.20;;;4.60;97.30;;;;;;4946119;28;20679;-64
2024/01/05 06:50:35;;;;;;;1.50;1.40;;;4.50;97.30;;;;;;4950861;28;20209;-64
2024/01/05 06:53:01;;;;;;;1.73;1.63;;;4.40;97.30;;;;;;4947302;28;20290;-65
2024/01/05 06:55:27;;;;;;;1.73;1.63;;;4.30;97.30;;;;;;4951426;28;20179;-64
2024/01/05 06:57:53;;;;;;;3.33;1.50;;;4.20;97.30;;;;;;4961430;28;20186;-64
2024/01/05 07:00:18;;;;;;;1.80;1.20;;;4.20;97.30;;;;;;4951098;28;20450;-64
2024/01/05 07:02:44;;;;;;;1.10;1.00;;;4.10;97.30;;;;;;4950509;28;20250;-64
2024/01/05 07:05:10;;;;;;;1.60;1.50;;;4.10;97.30;;;;;;4951008;28;20179;-65
2024/01/05 07:07:35;;;;;;;1.67;1.57;;;4.10;97.30;;;;;;4950537;28;20264;-64
2024/01/05 07:10:01;;;;;;;1.73;1.73;;;4.10;97.30;;;;;;4950728;28;20773;-65
2024/01/05 07:12:29;;;;;;;3.73;2.60;;;4.10;97.30;;;;;;4950242;28;20207;-64
2024/01/05 07:14:55;;;;;;;1.67;1.57;;;4.10;97.30;;;;;;4950831;28;20176;-64
2024/01/05 07:17:20;;;;;;;1.53;1.43;;;4.20;97.30;;;;;;4948866;28;20986;-64
2024/01/05 07:19:46;;;;;;;1.47;1.37;;;4.20;97.30;;;;;;4954350;28;20174;-64
2024/01/05 07:22:11;;;;;;;1.20;1.10;;;4.20;97.30;;;;;;4954862;28;20221;-65
2024/01/05 07:24:38;;;;;;;1.90;1.80;;;4.20;97.30;;;;;;4950028;28;20206;-64
2024/01/05 07:27:05;;;;;;;1.40;1.33;;;4.20;97.30;;;;;;4950601;28;20314;-65
2024/01/05 07:29:30;;;;;;;1.20;1.10;;;4.20;97.30;;;;;;4949010;28;20423;-64
2024/01/05 07:31:56;;;;;;;1.20;1.10;;;4.30;97.30;;;;;;4948982;28;20819;-64
2024/01/05 07:34:22;;;;;;;3.30;2.67;;;4.30;97.30;;;;;;4950332;28;20179;-64
2024/01/05 07:36:47;;;;;;;1.60;1.50;;;4.30;97.30;;;;;;4952871;28;20182;-64
2024/01/05 07:39:13;;;;;;;1.57;1.47;;;4.30;97.30;;;;;;4954410;28;20195;-65
2024/01/05 07:41:39;;;;;;;1.57;1.57;;;4.30;97.30;;;;;;4949092;28;20215;-64
2024/01/05 07:44:05;;;;;;;6.07;2.67;;;4.30;97.30;;;;;;4950151;28;20688;-64
2024/01/05 07:46:31;;;;;;;1.80;1.70;;;4.30;97.30;;;;;;4950193;28;20442;-64
2024/01/05 07:48:56;;;;;;;1.50;1.40;;;4.30;97.30;;;;;;4950144;28;20427;-64
2024/01/05 07:51:22;;;;;;;4.40;2.73;;;4.30;97.30;;;;;;4952647;28;20882;-62
2024/01/05 07:53:48;;;;;;;2.50;1.40;;;4.40;97.30;;;;;;4948800;28;20640;-64
2024/01/05 07:56:15;;;;;;;1.77;1.73;;;4.40;97.30;;;;;;4950447;28;20418;-64
2024/01/05 07:58:40;;;;;;;1.60;1.50;;;4.40;97.30;;;;;;4948875;28;20486;-64
2024/01/05 08:01:06;;;;;;;2.23;2.07;;;4.50;97.30;;;;;;4955599;28;20473;-64
2024/01/05 08:03:31;;;;;;;1.10;1.00;;;4.50;97.30;;;;;;4952203;28;20319;-64
2024/01/05 08:05:57;;;;;;;1.57;1.47;;;4.50;97.30;;;;;;4961533;28;20549;-64
2024/01/05 08:08:23;;;;;;;1.20;1.10;;;4.60;97.30;;;;;;4953952;28;20188;-64
2024/01/05 08:10:48;;;;;;;2.70;1.57;;;4.60;97.30;;;;;;4960265;28;20278;-65
2024/01/05 08:13:14;;;;;;;3.67;2.57;;;4.70;97.30;;;;;;4951853;28;20215;-64
2024/01/05 08:15:40;;;;;;;2.50;1.87;;;4.70;97.30;;;;;;4953482;28;20183;-62
2024/01/05 08:18:05;;;;;;;1.73;1.13;;;4.80;97.30;;;;;;4950851;28;20179;-64
2024/01/05 08:20:31;;;;;;;1.37;1.27;;;4.80;97.30;;;;;;4950277;28;20210;-64
2024/01/05 08:22:56;;;;;;;2.00;1.87;;;4.90;97.30;;;;;;4950859;28;20206;-64
2024/01/05 08:25:22;;;;;;;2.87;2.10;;;4.90;97.30;;;;;;4968339;28;20183;-64
2024/01/05 08:27:47;;;;;;;1.20;1.10;;;4.90;97.30;;;;;;4951768;28;20269;-64
2024/01/05 08:30:13;;;;;;;4.17;1.90;;;5.00;97.30;;;;;;4959622;28;20650;-64
2024/01/05 08:32:41;;;;;;;1.23;1.07;;;5.00;97.30;;;;;;4954567;28;20203;-64
2024/01/05 08:35:06;;;;;;;5.97;2.80;;;5.10;97.30;;;;;;4952026;28;20183;-64
2024/01/05 08:37:32;;;;;;;1.63;1.53;;;5.10;97.30;;;;;;4951814;28;20431;-64
2024/01/05 08:39:58;;;;;;;13.53;1.77;;;5.20;97.30;;;;;;4957544;28;20273;-64
2024/01/05 08:42:23;;;;;;;1.20;1.10;;;5.30;97.30;;;;;;4956682;28;20214;-64
2024/01/05 08:44:50;;;;;;;1.33;1.23;;;5.40;97.30;;;;;;4952936;28;20650;-64
2024/01/05 08:47:16;;;;;;;2.23;2.03;;;5.50;97.30;;;;;;4953416;28;20647;-64
2024/01/05 08:49:42;;;;;;;1.40;1.30;;;5.60;97.30;;;;;;4951573;28;20477;-64
2024/01/05 08:52:07;;;;;;;1.00;0.90;;;5.70;97.30;;;;;;4952775;28;20442;-64
2024/01/05 08:54:33;;;;;;;4.00;3.20;;;5.70;97.30;;;;;;4951463;28;20183;-64
2024/01/05 08:56:59;;;;;;;1.63;1.53;;;5.80;97.30;;;;;;4952853;28;20175;-64
2024/01/05 08:59:24;;;;;;;1.27;1.17;;;5.90;97.30;;;;;;4952790;28;20647;-64
2024/01/05 09:01:50;;;;;;;1.33;1.23;;;6.00;97.30;;;;;;4963683;28;20234;-64
2024/01/05 09:04:15;;;;;;;1.80;1.37;;;6.10;97.30;;;;;;4957641;28;20259;-64
2024/01/05 09:06:42;;;;;;;1.20;1.10;;;6.30;97.30;;;;;;4952430;28;20659;-64
2024/01/05 09:09:10;;;;;;;1.43;1.33;;;6.40;97.30;;;;;;4951128;28;20563;-64
2024/01/05 09:11:36;;;;;;;1.47;1.37;;;6.50;97.30;;;;;;4954017;28;20443;-64
2024/01/05 09:14:01;;;;;;;1.40;1.30;;;6.50;97.30;;;;;;4959091;28;20467;-64
2024/01/05 09:16:27;;;;;;;1.53;1.43;;;6.50;97.30;;;;;;4952368;28;20265;-64
2024/01/05 09:18:52;;;;;;;4.80;1.23;;;6.50;97.30;;;;;;4952510;28;20315;-64
2024/01/05 09:21:18;;;;;;;1.00;0.90;;;6.50;97.30;;;;;;4952644;28;20238;-64
2024/01/05 09:23:44;;;;;;;1.60;1.50;;;6.60;97.30;;;;;;4952325;28;20183;-64
2024/01/05 09:26:16;;;;;;;1.83;1.73;;;6.60;97.30;;;;;;4950959;28;20502;-64
2024/01/05 09:28:43;;;;;;;1.27;1.17;;;6.60;97.30;;;;;;4952158;28;20182;-64
2024/01/05 09:31:12;;;;;;;1.63;1.53;;;6.70;97.30;;;;;;4951965;28;20526;-64
2024/01/05 09:33:38;;;;;;;2.70;2.00;;;6.70;97.30;;;;;;4948922;28;20470;-65
2024/01/05 09:36:04;;;;;;;1.77;1.67;;;6.80;97.30;;;;;;4948597;28;20965;-64
2024/01/05 09:38:30;;;;;;;1.00;0.90;;;6.80;97.30;;;;;;4951409;28;20670;-64
2024/01/05 09:40:55;;;;;;;2.17;2.00;;;6.80;97.30;;;;;;4949997;28;20439;-64
2024/01/05 09:43:24;;;;;;;1.27;1.27;;;6.80;97.30;;;;;;4950384;28;20414;-64
2024/01/05 09:45:51;;;;;;;1.03;0.93;;;6.80;97.30;;;;;;4951553;28;20485;-64
2024/01/05 09:48:19;;;;;;;1.17;1.07;;;6.90;97.30;;;;;;4951895;28;20429;-64
2024/01/05 09:50:52;;;;;;;1.80;1.67;;;6.90;97.30;;;;;;4951443;28;20462;-64
2024/01/05 09:53:18;;;;;;;1.30;1.20;;;6.90;97.30;;;;;;4951720;28;20825;-64
2024/01/05 09:55:48;;;;;;;1.77;1.67;;;7.00;97.30;;;;;;4952050;28;20417;-64
2024/01/05 09:58:15;;;;;;;4.57;1.60;;;7.10;97.30;;;;;;4955914;28;20451;-64
2024/01/05 10:00:44;;;;;;;1.30;1.20;;;7.10;97.30;;;;;;4951138;28;20521;-64
2024/01/05 10:03:14;;;;;;;1.10;1.00;;;7.20;97.30;;;;;;4951648;28;20427;-64
2024/01/05 10:05:40;;;;;;;1.00;0.90;;;7.20;97.30;;;;;;4965806;28;20428;-64
2024/01/05 10:08:06;;;;;;;3.63;3.43;;;7.30;97.30;;;;;;4951423;28;20426;-64
2024/01/05 10:10:49;;;;;;;0.97;0.87;;;7.30;97.30;;;;;;4959522;28;20230;-64
2024/01/05 10:13:15;;;;;;;0.90;0.80;;;7.40;97.30;;;;;;4957058;28;20990;-64
2024/01/05 10:16:04;;;;;;;3.70;1.13;;;7.40;97.30;;;;;;4960708;28;20918;-64
2024/01/05 10:18:30;;;;;;;0.90;0.80;;;7.40;97.30;;;;;;4963015;28;20946;-64
2024/01/05 10:21:07;;;;;;;5.10;2.17;;;7.50;97.30;;;;;;4951203;28;20430;-64
2024/01/05 10:23:43;;;;;;;1.63;1.10;;;7.50;97.30;;;;;;4959232;28;20193;-64
2024/01/05 10:26:17;;;;;;;0.90;0.80;;;7.60;97.30;;;;;;4957832;28;20458;-64
2024/01/05 10:28:42;;;;;;;0.90;0.80;;;7.60;97.30;;;;;;4950110;28;20431;-64
2024/01/05 10:31:12;;;;;;;1.77;1.67;;;7.60;97.30;;;;;;4950800;28;20446;-63
2024/01/05 10:33:57;;;;;;;2.20;1.40;;;7.70;97.30;;;;;;4951064;28;20239;-63
2024/01/05 10:36:24;;;;;;;1.03;0.93;;;7.60;97.30;;;;;;4951115;28;20499;-64
2024/01/05 10:38:50;;;;;;;1.30;1.20;;;7.70;97.30;;;;;;4951156;28;20418;-63
2024/01/05 10:41:17;;;;;;;1.13;1.03;;;7.70;97.30;;;;;;4950960;28;20438;-64
2024/01/05 10:43:43;;;;;;;1.50;1.40;;;7.70;97.30;;;;;;4950573;28;20510;-63
2024/01/05 10:46:11;;;;;;;1.27;1.17;;;7.70;97.30;;;;;;4949382;28;20457;-63
2024/01/05 10:48:39;;;;;;;2.00;1.47;;;7.70;97.30;;;;;;4942409;28;20477;-64
2024/01/05 10:51:06;;;;;;;1.47;1.37;;;7.70;97.30;;;;;;4955565;28;20449;-64
2024/01/05 10:53:32;;;;;;;1.00;0.90;;;7.70;97.30;;;;;;4947214;28;20509;-64
2024/01/05 10:56:01;;;;;;;1.67;1.57;;;7.70;97.30;;;;;;4952528;28;20430;-63
2024/01/05 10:58:26;;;;;;;1.47;1.37;;;7.70;97.30;;;;;;4963158;28;20481;-64
2024/01/05 11:00:55;;;;;;;1.30;1.00;;;7.70;97.30;;;;;;4948987;28;20886;-64
2024/01/05 11:03:23;;;;;;;1.10;1.00;;;7.70;97.30;;;;;;4949826;28;20226;-63
2024/01/05 11:05:49;;;;;;;3.57;1.30;;;7.70;97.30;;;;;;4949347;28;20426;-64
2024/01/05 11:08:39;;;;;;;1.10;1.00;;;7.70;97.30;;;;;;4949612;28;20479;-63
2024/01/05 11:11:30;;;;;;;0.90;0.80;;;7.70;97.30;;;;;;4943532;28;20644;-63
2024/01/05 11:14:45;;;;;;;15.73;2.50;;;7.70;97.30;;;;;;4951592;28;20656;-63
2024/01/05 11:17:30;;;;;;;1.10;1.00;;;7.80;97.30;;;;;;4952929;28;20438;-63
2024/01/05 11:20:33;;;;;;;1.20;1.10;;;7.90;97.30;;;;;;4949315;28;20481;-64
2024/01/05 11:22:59;;;;;;;1.50;1.40;;;8.00;97.30;;;;;;4949302;28;20505;-64
2024/01/05 11:25:24;;;;;;;0.90;0.80;;;8.10;97.30;;;;;;4955466;28;20985;-63
2024/01/05 11:27:50;;;;;;;1.10;1.00;;;8.20;97.30;;;;;;4951810;28;20666;-63
2024/01/05 11:30:40;;;;;;;1.10;1.00;;;8.30;97.30;;;;;;4955703;28;20186;-64
2024/01/05 11:33:09;;;;;;;1.67;1.63;;;8.40;97.30;;;;;;4946868;28;20458;-63
2024/01/05 11:35:44;;;;;;;6.27;0.90;;;8.50;97.30;;;;;;4954080;28;20422;-63
2024/01/05 11:38:26;;;;;;;1.00;0.93;;;8.60;97.30;;;;;;4943788;28;20418;-64
2024/01/05 11:40:52;;;;;;;8.03;1.90;;;8.80;97.30;;;;;;4950094;28;20438;-64
2024/01/05 11:43:30;;;;;;;1.13;1.03;;;9.00;97.30;;;;;;4951444;28;20493;-64
2024/01/05 11:45:55;;;;;;;1.50;1.40;;;9.10;97.30;;;;;;4954028;28;20191;-65
2024/01/05 11:48:36;;;;;;;1.20;1.10;;;9.00;97.30;;;;;;4954106;28;20422;-65
2024/01/05 11:51:06;;;;;;;1.20;1.10;;;8.90;97.30;;;;;;4952631;28;20257;-65
2024/01/05 11:53:32;;;;;;;1.20;1.10;;;8.80;97.30;;;;;;4954457;28;20476;-65
2024/01/05 11:55:59;;;;;;;1.37;1.10;;;8.80;97.30;;;;;;4954008;28;20418;-65
2024/01/05 11:58:31;;;;;;;1.07;1.00;;;8.70;97.30;;;;;;4953895;28;20175;-63
2024/01/05 12:01:03;;;;;;;1.00;0.90;;;8.70;97.30;;;;;;4952113;28;20489;-65
2024/01/05 12:03:30;;;;;;;1.00;1.00;;;8.80;97.30;;;;;;4952435;28;20855;-63
2024/01/05 12:06:06;;;;;;;0.90;0.80;;;8.90;97.30;;;;;;4957615;28;20481;-65
2024/01/05 12:08:32;;;;;;;1.50;1.40;;;9.10;97.30;;;;;;4953705;28;20454;-64
2024/01/05 12:11:03;;;;;;;0.90;0.80;;;9.00;97.30;;;;;;4951581;28;20817;-65
2024/01/05 12:13:30;;;;;;;1.30;1.20;;;8.90;97.30;;;;;;4951029;28;20474;-64
2024/01/05 12:16:00;;;;;;;1.87;1.80;;;8.90;97.30;;;;;;4953336;28;20925;-64
2024/01/05 12:18:26;;;;;;;1.10;1.00;;;8.80;97.30;;;;;;4953613;28;20419;-65
2024/01/05 12:20:58;;;;;;;1.03;0.93;;;8.80;97.30;;;;;;4953576;28;20529;-64
2024/01/05 12:23:25;;;;;;;1.00;0.90;;;8.80;97.30;;;;;;4950010;28;20496;-65
2024/01/05 12:26:04;;;;;;;1.00;0.90;;;8.80;97.30;;;;;;4953456;28;20423;-64
2024/01/05 12:28:35;;;;;;;1.00;0.90;;;8.80;97.30;;;;;;4953773;28;20914;-65
2024/01/05 12:31:02;;;;;;;11.50;1.93;;;8.80;97.30;;;;;;4967923;28;20450;-64
2024/01/05 12:33:29;;;;;;;1.10;1.00;;;8.70;97.30;;;;;;4953390;28;20494;-64
2024/01/05 12:35:55;;;;;;;1.07;0.97;;;8.70;97.30;;;;;;4946420;28;20442;-65
2024/01/05 12:38:30;;;;;;;9.60;1.57;;;8.70;97.30;;;;;;4938395;28;20522;-63
2024/01/05 12:41:09;;;;;;;2.30;1.37;;;8.70;97.30;;;;;;4942480;28;20447;-64
2024/01/05 12:43:45;;;;;;;1.73;1.63;;;8.70;97.30;;;;;;4950697;28;20837;-64
2024/01/05 12:46:11;;;;;;;1.00;0.90;;;8.70;97.30;;;;;;4938365;28;20423;-64
2024/01/05 12:48:37;;;;;;;1.30;1.20;;;8.70;97.30;;;;;;4940106;28;20433;-64
2024/01/05 12:51:11;;;;;;;1.27;1.17;;;8.70;97.30;;;;;;4952224;28;20818;-62
2024/01/05 12:53:37;;;;;;;1.30;1.20;;;8.80;97.30;;;;;;4955658;28;20514;-64
2024/01/05 12:56:20;;;;;;;1.67;1.57;;;8.80;97.30;;;;;;4951298;28;20423;-65
2024/01/05 12:58:47;;;;;;;1.00;0.90;;;8.80;97.30;;;;;;4951613;28;20219;-65
2024/01/05 13:01:23;;;;;;;1.00;0.90;;;8.90;97.30;;;;;;4958394;28;20459;-64
2024/01/05 13:03:51;;;;;;;1.23;1.13;;;8.80;97.30;;;;;;4959569;28;20497;-64
2024/01/05 13:06:17;;;;;;;1.27;1.13;;;8.80;97.30;;;;;;4950131;28;20423;-65
2024/01/05 13:08:43;;;;;;;0.90;0.80;;;8.80;97.30;;;;;;4958111;28;20489;-64
2024/01/05 13:11:08;;;;;;;1.10;1.00;;;8.80;97.30;;;;;;4946988;28;20215;-64
2024/01/05 13:13:34;;;;;;;1.30;1.20;;;8.80;97.30;;;;;;4947962;28;20578;-65
2024/01/05 13:16:01;;;;;;;1.70;1.30;;;8.70;97.30;;;;;;4949826;28;20183;-65
2024/01/05 13:18:26;;;;;;;1.40;1.30;;;8.70;97.30;;;;;;4948405;28;20655;-64
2024/01/05 13:20:53;;;;;;;1.00;0.90;;;8.80;97.30;;;;;;4944075;28;20457;-65
2024/01/05 13:23:18;;;;;;;1.10;1.00;;;8.80;97.30;;;;;;4949892;28;20698;-65
2024/01/05 13:25:44;;;;;;;1.30;1.20;;;8.80;97.30;;;;;;4950509;28;20865;-62
2024/01/05 13:28:09;;;;;;;4.63;1.57;;;8.80;97.30;;;;;;4951170;28;20262;-62
2024/01/05 13:30:36;;;;;;;1.00;1.00;;;8.80;97.30;;;;;;4951665;28;20588;-65
2024/01/05 13:33:02;;;;;;;1.00;0.90;;;8.80;97.30;;;;;;4950307;28;20210;-65
2024/01/05 13:35:28;;;;;;;1.30;1.20;;;8.80;97.30;;;;;;4951580;28;20826;-65
2024/01/05 13:37:53;;;;;;;1.77;1.33;;;8.80;97.30;;;;;;4950208;28;20186;-65
2024/01/05 13:40:19;;;;;;;1.23;1.00;;;8.80;97.30;;;;;;4951849;28;20179;-65
2024/01/05 13:42:44;;;;;;;1.00;0.90;;;8.80;97.30;;;;;;4951323;28;20221;-62
2024/01/05 13:45:10;;;;;;;0.90;0.80;;;8.90;97.30;;;;;;4951707;28;20442;-65
2024/01/05 13:47:36;;;;;;;3.80;2.13;;;8.80;97.30;;;;;;4951470;28;20187;-65
2024/01/05 13:50:04;;;;;;;1.60;1.50;;;8.80;97.30;;;;;;4951382;28;20201;-65
2024/01/05 13:52:30;;;;;;;2.17;1.50;;;8.80;97.30;;;;;;4950701;28;20206;-65
2024/01/05 13:54:56;;;;;;;1.30;1.20;;;8.80;97.30;;;;;;4951668;28;20419;-64
2024/01/05 13:57:22;;;;;;;1.13;1.03;;;8.80;97.30;;;;;;4951242;28;20171;-65
2024/01/05 13:59:48;;;;;;;1.40;1.30;;;8.80;97.30;;;;;;4950116;28;20187;-64
2024/01/05 14:02:14;;;;;;;1.30;1.20;;;8.70;97.30;;;;;;4950184;28;20979;-65
2024/01/05 14:04:40;;;;;;;1.00;0.90;;;8.70;97.30;;;;;;4950775;28;20433;-65
2024/01/05 14:07:05;;;;;;;1.87;1.53;;;8.70;97.30;;;;;;4950309;28;20418;-65
2024/01/05 14:09:31;;;;;;;1.20;1.10;;;8.70;97.30;;;;;;4951585;28;20718;-65
2024/01/05 14:11:56;;;;;;;1.00;0.90;;;8.70;97.30;;;;;;4950198;28;20199;-65
2024/01/05 14:14:22;;;;;;;1.20;1.10;;;8.70;97.30;;;;;;4951448;28;20652;-64
2024/01/05 14:16:47;;;;;;;6.93;1.37;;;8.70;97.30;;;;;;4967759;28;20714;-65
2024/01/05 14:19:13;;;;;;;0.80;0.70;;;8.70;97.30;;;;;;4951949;28;20266;-65
2024/01/05 14:21:39;;;;;;;0.80;0.70;;;8.70;97.30;;;;;;4958056;28;20216;-65
2024/01/05 14:24:05;;;;;;;7.03;1.40;;;8.70;97.30;;;;;;4952727;28;20191;-65
2024/01/05 14:26:30;;;;;;;3.23;1.17;;;8.70;97.30;;;;;;4957936;28;20427;-65
2024/01/05 14:28:56;;;;;;;1.43;1.33;;;8.70;97.30;;;;;;4952014;28;20687;-62
2024/01/05 14:31:29;;;;;;;1.10;1.00;;;8.60;97.30;;;;;;4958295;28;20638;-64
2024/01/05 14:33:56;;;;;;;2.90;2.70;;;8.60;97.30;;;;;;4951130;28;20701;-65
2024/01/05 14:36:23;;;;;;;1.00;0.90;;;8.50;97.30;;;;;;4949969;28;20461;-65
2024/01/05 14:38:51;;;;;;;1.03;0.93;;;8.50;97.30;;;;;;4949929;28;20571;-65
2024/01/05 14:41:17;;;;;;;1.43;1.33;;;8.50;97.30;;;;;;4943354;28;20439;-64
2024/01/05 14:43:43;;;;;;;1.00;0.90;;;8.40;97.30;;;;;;4951139;28;20783;-65
2024/01/05 14:46:10;;;;;;;1.10;1.00;;;8.40;97.30;;;;;;4951294;28;20734;-65
2024/01/05 14:48:36;;;;;;;1.00;0.90;;;8.40;97.30;;;;;;4949862;28;20441;-65
2024/01/05 14:51:02;;;;;;;1.40;1.30;;;8.30;97.30;;;;;;4949652;28;20766;-65
2024/01/05 14:53:29;;;;;;;1.10;1.00;;;8.30;97.30;;;;;;4950653;28;20200;-65
2024/01/05 14:55:56;;;;;;;1.03;0.93;;;8.20;97.30;;;;;;4950878;28;20415;-65
2024/01/05 14:58:21;;;;;;;1.53;1.43;;;8.10;97.30;;;;;;4949347;28;20430;-65
2024/01/05 15:00:47;;;;;;;1.10;1.00;;;8.10;97.30;;;;;;4949188;28;20454;-65
2024/01/05 15:03:13;;;;;;;2.40;1.03;;;8.00;97.30;;;;;;4950417;28;20194;-65
2024/01/05 15:05:38;;;;;;;1.10;1.00;;;8.00;97.30;;;;;;4950845;28;20194;-65
2024/01/05 15:08:14;;;;;;;2.60;1.30;;;7.90;97.30;;;;;;4957908;28;20186;-65
2024/01/05 15:10:40;;;;;;;1.30;1.20;;;7.90;97.30;;;;;;4954555;28;20190;-65
2024/01/05 15:13:06;;;;;;;2.20;1.80;;;7.90;97.30;;;;;;4958196;28;20496;-65
2024/01/05 15:15:31;;;;;;;1.20;1.10;;;7.90;97.30;;;;;;4949161;28;20179;-65
2024/01/05 15:17:57;;;;;;;2.10;1.27;;;7.90;97.30;;;;;;4954056;28;20170;-65
2024/01/05 15:20:23;;;;;;;0.90;0.80;;;7.80;97.30;;;;;;4955423;28;20658;-65
2024/01/05 15:22:51;;;;;;;2.47;2.27;;;7.80;97.30;;;;;;4963403;28;20425;-65
2024/01/05 15:25:17;;;;;;;1.60;1.50;;;7.80;97.30;;;;;;4956043;28;20461;-65
2024/01/05 15:27:43;;;;;;;2.00;1.83;;;7.90;97.30;;;;;;4955636;28;20433;-65
2024/01/05 15:30:09;;;;;;;4.30;2.13;;;7.80;97.30;;;;;;4953911;28;20442;-65
2024/01/05 15:32:34;;;;;;;1.23;1.20;;;7.90;97.30;;;;;;4959195;28;20202;-65
2024/01/05 15:35:00;;;;;;;1.17;1.10;;;7.90;97.30;;;;;;4958213;28;20502;-65
2024/01/05 15:37:26;;;;;;;1.40;1.30;;;7.80;97.30;;;;;;4956080;28;20647;-65
2024/01/05 15:39:51;;;;;;;1.00;0.90;;;7.80;97.30;;;;;;4956148;28;20178;-65
2024/01/05 15:42:17;;;;;;;1.00;0.90;;;7.70;97.30;;;;;;4964358;28;20199;-65
2024/01/05 15:44:43;;;;;;;1.00;0.90;;;7.70;97.30;;;;;;4955482;28;20688;-65
2024/01/05 15:47:10;;;;;;;4.77;1.10;;;7.70;97.30;;;;;;4954954;28;20530;-65
2024/01/05 15:49:35;;;;;;;12.37;1.30;;;7.70;97.30;;;;;;4955344;28;20187;-65
2024/01/05 15:52:01;;;;;;;2.17;1.13;;;7.80;97.30;;;;;;4962949;28;20453;-65
2024/01/05 15:54:26;;;;;;;1.27;1.17;;;7.70;97.30;;;;;;4956700;28;20222;-65
2024/01/05 15:56:53;;;;;;;1.60;1.43;;;7.80;97.30;;;;;;4955304;28;20179;-65
2024/01/05 15:59:19;;;;;;;1.13;1.03;;;7.80;97.30;;;;;;4955115;28;20281;-65
2024/01/05 16:01:48;;;;;;;1.23;1.13;;;7.70;97.30;;;;;;4964200;28;20561;-65
2024/01/05 16:04:14;;;;;;;1.20;1.10;;;7.80;97.30;;;;;;4956641;28;20674;-65
2024/01/05 16:06:39;;;;;;;1.00;0.90;;;7.80;97.30;;;;;;4955139;28;20594;-65
2024/01/05 16:09:05;;;;;;;1.67;1.43;;;7.80;97.30;;;;;;4955275;28;20191;-65
2024/01/05 16:11:31;;;;;;;1.00;0.90;;;7.80;97.30;;;;;;4956309;28;20253;-65
2024/01/05 16:14:00;;;;;;;1.10;1.00;;;7.80;97.30;;;;;;4955121;28;20682;-65
2024/01/05 16:16:26;;;;;;;6.00;1.50;;;7.80;97.30;;;;;;4947570;28;20429;-65
2024/01/05 16:18:55;;;;;;;1.23;1.13;;;7.70;97.30;;;;;;4956859;28;20418;-65
2024/01/05 16:21:25;;;;;;;1.00;0.90;;;7.70;97.30;;;;;;4964265;28;20496;-64
2024/01/05 16:23:52;;;;;;;0.90;0.80;;;7.70;97.30;;;;;;4956588;28;20410;-65
2024/01/05 16:26:19;;;;;;;0.97;0.87;;;7.70;97.30;;;;;;4957367;28;20918;-64
2024/01/05 16:28:44;;;;;;;1.50;1.40;;;7.60;97.30;;;;;;4958363;28;20418;-65
2024/01/05 16:31:10;;;;;;;1.03;0.93;;;7.60;97.30;;;;;;4961326;28;20453;-65
2024/01/05 16:33:36;;;;;;;1.83;1.60;;;7.60;97.30;;;;;;4959885;28;20478;-65
2024/01/05 16:36:02;;;;;;;1.43;0.97;;;7.60;97.30;;;;;;4952076;28;20191;-65
2024/01/05 16:38:28;;;;;;;1.40;1.30;;;7.60;97.30;;;;;;4952361;28;20183;-64
2024/01/05 16:40:54;;;;;;;1.73;1.20;;;7.50;97.30;;;;;;4951978;28;20798;-65
2024/01/05 16:43:19;;;;;;;1.17;1.00;;;7.50;97.30;;;;;;4953073;28;20195;-65
2024/01/05 16:45:45;;;;;;;0.90;0.80;;;7.50;97.30;;;;;;4955633;28;20182;-65
2024/01/05 16:48:11;;;;;;;1.00;0.90;;;7.40;97.30;;;;;;4953988;28;20238;-65
2024/01/05 16:50:37;;;;;;;2.23;2.03;;;7.30;97.30;;;;;;4950013;28;20447;-65
2024/01/05 16:53:03;;;;;;;1.03;0.93;;;7.30;97.30;;;;;;4952438;28;20459;-65
2024/01/05 16:55:29;;;;;;;1.10;1.00;;;7.20;97.30;;;;;;4956487;28;20270;-64
2024/01/05 16:57:55;;;;;;;1.43;1.33;;;7.20;97.30;;;;;;4964937;28;20860;-65
2024/01/05 17:00:21;;;;;;;1.07;1.00;;;7.20;97.30;;;;;;4952803;28;20871;-65
2024/01/05 17:02:47;;;;;;;1.40;1.20;;;7.20;97.30;;;;;;4951110;28;20222;-65
2024/01/05 17:05:13;;;;;;;2.83;1.80;;;7.20;97.30;;;;;;4952717;28;20887;-65
2024/01/05 17:07:39;;;;;;;1.30;1.20;;;7.20;97.30;;;;;;4951368;28;20814;-65
2024/01/05 17:10:05;;;;;;;3.00;2.60;;;7.20;97.30;;;;;;4948328;28;20487;-65
2024/01/05 17:12:31;;;;;;;0.90;0.80;;;7.10;97.30;;;;;;4951468;28;20381;-65
2024/01/05 17:14:57;;;;;;;1.50;1.20;;;7.10;97.30;;;;;;4951480;28;20454;-65
2024/01/05 17:17:24;;;;;;;2.23;2.03;;;7.10;97.30;;;;;;4951463;28;20682;-64
2024/01/05 17:19:50;;;;;;;4.93;2.07;;;7.10;97.30;;;;;;4959696;28;20446;-65
2024/01/05 17:22:16;;;;;;;2.70;1.73;;;7.00;97.30;;;;;;4952204;28;20459;-65
2024/01/05 17:24:41;;;;;;;1.10;1.00;;;7.00;97.30;;;;;;4952620;28;20431;-65
2024/01/05 17:27:15;;;;;;;2.67;1.30;;;7.00;97.30;;;;;;4968275;28;20214;-64
2024/01/05 17:29:43;;;;;;;1.10;1.00;;;7.00;97.30;;;;;;4952994;28;20182;-65
2024/01/05 17:32:10;;;;;;;1.53;1.43;;;7.00;97.30;;;;;;4953377;28;20443;-65
2024/01/05 17:34:36;;;;;;;1.30;1.20;;;7.00;97.30;;;;;;4952360;28;20466;-65
2024/01/05 17:37:02;;;;;;;1.27;1.17;;;7.00;97.30;;;;;;4952186;28;20423;-65
2024/01/05 17:39:27;;;;;;;1.30;1.20;;;7.00;97.30;;;;;;4950981;28;20499;-65
2024/01/05 17:41:53;;;;;;;1.57;1.47;;;7.00;97.30;;;;;;4951466;28;20219;-65
2024/01/05 17:44:18;;;;;;;33.23;1.97;;;7.00;97.30;;;;;;4950131;28;20190;-65
2024/01/05 17:46:44;;;;;;;2.33;2.13;;;7.00;97.30;;;;;;4949682;28;20255;-64
2024/01/05 17:49:10;;;;;;;1.23;1.13;;;7.00;97.30;;;;;;4951278;28;20194;-65
2024/01/05 17:51:38;;;;;;;1.30;1.20;;;7.00;97.30;;;;;;4950717;28;20468;-65
2024/01/05 17:54:04;;;;;;;1.50;1.40;;;7.10;97.30;;;;;;4951274;28;20700;-65
2024/01/05 17:56:33;;;;;;;2.70;1.40;;;7.10;97.30;;;;;;4951172;28;20504;-65
2024/01/05 17:59:00;;;;;;;1.10;1.00;;;7.10;97.30;;;;;;4947889;28;20183;-65